Hlavní strana
METAR-TAF:

METAR-TAF

Letiště :

Madrid-Cuatro Vientos, Španělsko

zeměpisná šířka: 40-23N, zeměpisná délka: 003-47W, výška: 690 m

Aktuální stav počasí

Zpráva byla vytvořena před 22 minutami, v 22:30 UTC
Jihovýchodní vítr 8 kt, proměnlivý mezi východním a jihojihovýchodním
Teplota 12°C
Vlhkost vzduchu 67%
Tlak 1016 hPa
Viditelnost 10 km a více
Žádná oblačnost pod 1500 m, nevyskytují se cumulonimby.

METAR: LEVS 042230Z AUTO 13008KT 100V160 CAVOK 12/06 Q1016

Čas: 00:52 (22:52 UTC)

Předpověď počasí

Zpráva byla vytvořena před 5 hodinami a 52 minutami, v 17:00 UTC
Předpověď platná od 04 v 18 UTC do 05 v 03 UTC
Jihovýchodní vítr 12 kt
Viditelnost 10 km a více
Žádná oblačnost pod 1500 m, nevyskytují se cumulonimby.

TAF: LEVS 041700Z 0418/0503 14012KT CAVOK

Stav a předpovědi počasí z více než 4 000 letišť (zprávy METAR a TAF).

Červené a žluté tečky na mapě představují dostupné meteorologické stanice.

Když kurzor umístíte na tečku, zobrazí se název stanice.

Pak kliknutím zobrazíte stav a předpověď počasí.

Chcete-li změnit mapu, kliknutím na zelené tlačítko se znaménkem +mapu přiblížíte, kliknutím na zelené tlačítko se znaménkem – mapu oddálíte a kliknutím na zelené šipky přejdete na sousední mapy.


METAR-TAF: